createdAt,value
2023-05-06T00:00:30.600Z,51.212242
2023-05-06T00:01:30.577Z,51.212193
2023-05-06T00:02:30.606Z,51.212097
2023-05-06T00:03:30.737Z,51.212025
2023-05-06T00:04:30.610Z,51.212223
2023-05-06T00:05:30.551Z,51.212215
2023-05-06T00:06:30.538Z,51.212143
2023-05-06T00:07:30.516Z,51.212116
2023-05-06T00:08:30.604Z,51.212181
2023-05-06T00:09:30.566Z,51.212200
2023-05-06T00:10:30.515Z,51.212170
2023-05-06T00:11:30.461Z,51.212124
2023-05-06T00:12:30.463Z,51.212185
2023-05-06T00:13:30.523Z,51.212128
2023-05-06T00:14:30.455Z,51.212105
2023-05-06T00:15:32.117Z,51.212170
2023-05-06T00:16:31.495Z,51.212292
2023-05-06T00:17:30.458Z,51.212196
2023-05-06T00:18:30.539Z,51.212250
2023-05-06T00:19:30.419Z,51.212196
2023-05-06T00:20:30.430Z,51.212128
2023-05-06T00:21:30.399Z,51.212223
2023-05-06T00:22:30.451Z,51.212215
2023-05-06T00:23:30.520Z,51.212013
2023-05-06T00:24:30.425Z,51.212116
2023-05-06T00:25:30.475Z,51.212170
2023-05-06T00:26:30.411Z,51.212204
2023-05-06T00:27:30.380Z,51.211998
2023-05-06T00:28:30.449Z,51.212059
2023-05-06T00:29:30.421Z,51.212135
2023-05-06T00:30:30.361Z,51.212154
2023-05-06T00:31:30.406Z,51.212128
2023-05-06T00:32:30.397Z,51.212170
2023-05-06T00:33:30.332Z,51.212082
2023-05-06T00:34:30.392Z,51.212059
2023-05-06T00:35:30.314Z,51.211987
2023-05-06T00:36:30.335Z,51.212032
2023-05-06T00:37:30.311Z,51.211895
2023-05-06T00:38:30.308Z,51.211941
2023-05-06T00:39:30.326Z,51.211899
2023-05-06T00:40:30.284Z,51.211876
2023-05-06T00:41:30.278Z,51.211971
2023-05-06T00:42:30.272Z,51.212032
2023-05-06T00:43:30.263Z,51.212036
2023-05-06T00:44:30.294Z,51.212070
2023-05-06T00:45:30.271Z,51.212013
2023-05-06T00:46:30.255Z,51.211979
2023-05-06T00:47:31.602Z,51.212029
2023-05-06T00:48:30.251Z,51.212009
2023-05-06T00:49:30.239Z,51.212090
2023-05-06T00:50:30.254Z,51.212112
2023-05-06T00:51:30.228Z,51.211826
2023-05-06T00:52:30.237Z,51.211823
2023-05-06T00:53:30.263Z,51.211914
2023-05-06T00:54:30.185Z,51.211849
2023-05-06T00:55:30.179Z,51.211971
2023-05-06T00:56:30.267Z,51.211975
2023-05-06T00:57:30.316Z,51.211983
2023-05-06T00:58:30.163Z,51.211998
2023-05-06T00:59:30.150Z,51.212074
2023-05-06T01:00:30.147Z,51.212040
2023-05-06T01:01:30.182Z,51.212059
2023-05-06T01:02:39.882Z,51.211994
2023-05-06T01:03:32.270Z,51.212086
2023-05-06T01:04:30.139Z,51.212029
2023-05-06T01:05:30.144Z,51.211994
2023-05-06T01:06:30.129Z,51.211945
2023-05-06T01:07:30.108Z,51.211967
2023-05-06T01:08:30.091Z,51.212044
2023-05-06T01:09:30.148Z,51.211914
2023-05-06T01:10:30.081Z,51.211895
2023-05-06T01:11:30.112Z,51.211758
2023-05-06T01:12:30.125Z,51.211830
2023-05-06T01:13:30.203Z,51.211884
2023-05-06T01:14:30.105Z,51.211933
2023-05-06T01:15:30.084Z,51.211994
2023-05-06T01:16:30.124Z,51.212090
2023-05-06T01:17:30.063Z,51.211994
2023-05-06T01:18:30.043Z,51.211937
2023-05-06T01:19:30.012Z,51.211926
2023-05-06T01:20:30.061Z,51.211967
2023-05-06T01:21:30.000Z,51.212036
2023-05-06T01:22:29.990Z,51.211910
2023-05-06T01:23:29.990Z,51.212009
2023-05-06T01:24:30.003Z,51.211987
2023-05-06T01:25:30.005Z,51.212120
2023-05-06T01:26:29.956Z,51.212112
2023-05-06T01:27:29.961Z,51.212036
2023-05-06T01:28:29.981Z,51.211903
2023-05-06T01:29:30.023Z,51.211987
2023-05-06T01:30:29.958Z,51.212082
2023-05-06T01:31:29.970Z,51.211910
2023-05-06T01:32:29.945Z,51.212128
2023-05-06T01:33:29.943Z,51.212017
2023-05-06T01:34:29.914Z,51.212006
2023-05-06T01:35:29.953Z,51.211933
2023-05-06T01:36:30.935Z,51.211952
2023-05-06T01:37:29.902Z,51.212044
2023-05-06T01:38:29.893Z,51.211975
2023-05-06T01:39:29.881Z,51.211792
2023-05-06T01:40:29.863Z,51.211815
2023-05-06T01:41:29.861Z,51.211967
2023-05-06T01:42:29.883Z,51.211964
2023-05-06T01:43:29.846Z,51.211956
2023-05-06T01:44:29.857Z,51.211727
2023-05-06T01:45:29.854Z,51.211689
2023-05-06T01:46:29.888Z,51.211678
2023-05-06T01:47:29.853Z,51.212044
2023-05-06T01:48:29.841Z,51.212238
2023-05-06T01:49:29.841Z,51.212231
2023-05-06T01:50:29.816Z,51.212193
2023-05-06T01:51:29.814Z,51.212143
2023-05-06T01:52:29.789Z,51.212135
2023-05-06T01:53:29.879Z,51.212124
2023-05-06T01:54:29.778Z,51.212170
2023-05-06T01:55:29.768Z,51.212158
2023-05-06T01:56:29.759Z,51.212051
2023-05-06T01:57:29.756Z,51.212139
2023-05-06T01:58:29.780Z,51.212193
2023-05-06T01:59:29.778Z,51.212090
2023-05-06T02:00:29.747Z,51.212132
2023-05-06T02:01:29.847Z,51.212040
2023-05-06T02:02:29.804Z,51.212074
2023-05-06T02:03:29.824Z,51.212170
2023-05-06T02:04:29.732Z,51.212112
2023-05-06T02:05:29.681Z,51.212162
2023-05-06T02:06:29.733Z,51.212154
2023-05-06T02:07:30.597Z,51.212170
2023-05-06T02:08:29.676Z,51.212158
2023-05-06T02:09:29.724Z,51.212070
2023-05-06T02:10:29.691Z,51.212048
2023-05-06T02:11:29.687Z,51.212101
2023-05-06T02:12:29.635Z,51.212051
2023-05-06T02:13:29.656Z,51.211975
2023-05-06T02:14:29.672Z,51.212132
2023-05-06T02:15:29.655Z,51.212208
2023-05-06T02:16:29.637Z,51.212265
2023-05-06T02:17:29.794Z,51.212223
2023-05-06T02:18:29.616Z,51.212215
2023-05-06T02:19:29.598Z,51.212154
2023-05-06T02:20:29.619Z,51.212112
2023-05-06T02:21:29.636Z,51.212097
2023-05-06T02:22:29.584Z,51.212036
2023-05-06T02:23:29.577Z,51.212036
2023-05-06T02:24:29.625Z,51.212070
2023-05-06T02:25:29.598Z,51.212063
2023-05-06T02:26:29.560Z,51.212063
2023-05-06T02:27:29.568Z,51.212082
2023-05-06T02:28:29.561Z,51.212093
2023-05-06T02:29:30.570Z,51.212040
2023-05-06T02:30:29.527Z,51.211929
2023-05-06T02:31:29.610Z,51.212097
2023-05-06T02:32:29.604Z,51.212101
2023-05-06T02:33:29.618Z,51.212105
2023-05-06T02:34:29.513Z,51.212128
2023-05-06T02:35:29.527Z,51.212166
2023-05-06T02:36:29.489Z,51.212181
2023-05-06T02:37:29.506Z,51.212135
2023-05-06T02:38:29.474Z,51.212265
2023-05-06T02:39:29.474Z,51.212227
2023-05-06T02:40:29.453Z,51.212139
2023-05-06T02:41:29.476Z,51.212124
2023-05-06T02:42:30.479Z,51.212078
2023-05-06T02:43:29.493Z,51.212090
2023-05-06T02:44:29.425Z,51.212086
2023-05-06T02:45:29.456Z,51.212051
2023-05-06T02:46:29.421Z,51.212112
2023-05-06T02:47:29.474Z,51.212173
2023-05-06T02:48:29.425Z,51.212162
2023-05-06T02:49:29.471Z,51.212055
2023-05-06T02:50:29.374Z,51.212219
2023-05-06T02:51:29.404Z,51.212116
2023-05-06T02:52:29.398Z,51.211910
2023-05-06T02:53:29.595Z,51.212166
2023-05-06T02:54:29.439Z,51.212101
2023-05-06T02:55:29.351Z,51.211884
2023-05-06T02:56:29.423Z,51.211941
2023-05-06T02:57:29.501Z,51.211941
2023-05-06T02:58:29.369Z,51.212055
2023-05-06T02:59:29.328Z,51.212223
2023-05-06T03:00:29.355Z,51.212032
2023-05-06T03:01:29.423Z,51.212143
2023-05-06T03:02:29.398Z,51.212002
2023-05-06T03:03:29.311Z,51.211998
2023-05-06T03:04:29.335Z,51.212173
2023-05-06T03:05:29.281Z,51.212120
2023-05-06T03:06:29.288Z,51.212433
2023-05-06T03:07:29.294Z,51.212090
2023-05-06T03:08:29.283Z,51.212029
2023-05-06T03:09:29.287Z,51.211998
2023-05-06T03:10:29.252Z,51.212025
2023-05-06T03:11:29.238Z,51.212074
2023-05-06T03:12:29.276Z,51.212032
2023-05-06T03:13:29.231Z,51.212200
2023-05-06T03:14:29.247Z,51.212093
2023-05-06T03:15:29.256Z,51.212021
2023-05-06T03:16:29.256Z,51.212124
2023-05-06T03:17:29.206Z,51.212101
2023-05-06T03:18:29.412Z,51.211987
2023-05-06T03:19:29.170Z,51.211937
2023-05-06T03:20:29.153Z,51.212090
2023-05-06T03:21:29.249Z,51.211979
2023-05-06T03:22:29.189Z,51.212135
2023-05-06T03:23:29.204Z,51.212288
2023-05-06T03:24:30.164Z,51.212242
2023-05-06T03:25:29.146Z,51.212288
2023-05-06T03:26:29.120Z,51.212219
2023-05-06T03:27:29.125Z,51.212341
2023-05-06T03:28:29.148Z,51.212173
2023-05-06T03:29:29.148Z,51.212219
2023-05-06T03:30:29.088Z,51.211903
2023-05-06T03:31:30.194Z,51.211971
2023-05-06T03:32:29.103Z,51.211811
2023-05-06T03:33:29.112Z,51.212021
2023-05-06T03:34:29.129Z,51.212109
2023-05-06T03:35:29.079Z,51.212112
2023-05-06T03:36:29.050Z,51.212086
2023-05-06T03:37:29.065Z,51.212044
2023-05-06T03:38:29.032Z,51.212044
2023-05-06T03:39:30.066Z,51.212063
2023-05-06T03:40:29.038Z,51.211960
2023-05-06T03:41:29.021Z,51.211872
2023-05-06T03:42:29.090Z,51.211781
2023-05-06T03:43:29.036Z,51.211853
2023-05-06T03:44:29.066Z,51.211891
2023-05-06T03:45:29.078Z,51.212070
2023-05-06T03:46:29.014Z,51.212070
2023-05-06T03:47:29.012Z,51.211948
2023-05-06T03:48:28.985Z,51.211937
2023-05-06T03:49:28.964Z,51.212074
2023-05-06T03:50:29.608Z,51.211956
2023-05-06T03:51:29.025Z,51.211796
2023-05-06T03:52:28.947Z,51.211884
2023-05-06T03:53:29.141Z,51.212009
2023-05-06T03:54:28.952Z,51.211967
2023-05-06T03:55:28.928Z,51.212078
2023-05-06T03:56:28.899Z,51.212162
2023-05-06T03:57:28.929Z,51.212040
2023-05-06T03:58:28.914Z,51.212132
2023-05-06T03:59:28.938Z,51.212013
2023-05-06T04:00:28.888Z,51.212036
2023-05-06T04:01:28.890Z,51.212166
2023-05-06T04:02:29.050Z,51.211941
2023-05-06T04:03:29.003Z,51.212036
2023-05-06T04:04:28.864Z,51.212032
2023-05-06T04:05:28.881Z,51.211849
2023-05-06T04:06:28.895Z,51.212078
2023-05-06T04:07:28.891Z,51.212139
2023-05-06T04:08:29.609Z,51.212029
2023-05-06T04:09:28.906Z,51.212086
2023-05-06T04:10:28.819Z,51.212070
2023-05-06T04:11:29.788Z,51.212181
2023-05-06T04:12:28.805Z,51.212151
2023-05-06T04:13:28.794Z,51.212097
2023-05-06T04:14:28.798Z,51.212006
2023-05-06T04:15:28.810Z,51.212093
2023-05-06T04:16:28.827Z,51.212124
2023-05-06T04:17:28.828Z,51.212151
2023-05-06T04:18:28.757Z,51.212120
2023-05-06T04:19:28.773Z,51.212105
2023-05-06T04:20:28.869Z,51.212109
2023-05-06T04:21:28.756Z,51.212223
2023-05-06T04:22:28.739Z,51.212147
2023-05-06T04:23:28.779Z,51.212154
2023-05-06T04:24:28.754Z,51.212193
2023-05-06T04:25:28.785Z,51.212212
2023-05-06T04:26:28.706Z,51.212212
2023-05-06T04:27:28.745Z,51.212200
2023-05-06T04:28:28.715Z,51.212185
2023-05-06T04:29:28.701Z,51.212177
2023-05-06T04:30:28.680Z,51.212227
2023-05-06T04:31:28.714Z,51.212189
2023-05-06T04:32:28.737Z,51.212147
2023-05-06T04:33:28.684Z,51.212116
2023-05-06T04:34:28.691Z,51.212135
2023-05-06T04:35:28.659Z,51.212120
2023-05-06T04:36:28.691Z,51.212193
2023-05-06T04:37:28.672Z,51.212170
2023-05-06T04:38:28.645Z,51.212128
2023-05-06T04:39:28.629Z,51.212212
2023-05-06T04:40:28.625Z,51.212200
2023-05-06T04:41:28.689Z,51.212128
2023-05-06T04:42:28.617Z,51.212097
2023-05-06T04:43:28.609Z,51.212170
2023-05-06T04:44:28.584Z,51.212227
2023-05-06T04:45:28.664Z,51.212177
2023-05-06T04:46:28.606Z,51.212067
2023-05-06T04:47:28.588Z,51.212082
2023-05-06T04:48:28.546Z,51.212048
2023-05-06T04:49:28.574Z,51.212051
2023-05-06T04:50:28.562Z,51.212051
2023-05-06T04:51:28.571Z,51.212135
2023-05-06T04:52:28.518Z,51.212097
2023-05-06T04:53:29.525Z,51.212135
2023-05-06T04:54:28.557Z,51.212124
2023-05-06T04:55:28.521Z,51.212208
2023-05-06T04:56:28.521Z,51.212238
2023-05-06T04:57:28.580Z,51.212303
2023-05-06T04:58:28.478Z,51.212360
2023-05-06T04:59:28.543Z,51.212189
2023-05-06T05:00:28.491Z,51.212273
2023-05-06T05:01:28.581Z,51.212212
2023-05-06T05:02:28.633Z,51.212044
2023-05-06T05:03:28.645Z,51.212093
2023-05-06T05:04:28.515Z,51.212070
2023-05-06T05:05:28.478Z,51.212170
2023-05-06T05:06:28.481Z,51.212269
2023-05-06T05:07:28.475Z,51.212292
2023-05-06T05:08:28.443Z,51.212006
2023-05-06T05:09:28.430Z,51.212025
2023-05-06T05:10:28.412Z,51.212193
2023-05-06T05:11:28.457Z,51.212227
2023-05-06T05:12:28.407Z,51.212261
2023-05-06T05:13:28.480Z,51.212200
2023-05-06T05:14:28.437Z,51.212276
2023-05-06T05:15:28.373Z,51.212208
2023-05-06T05:16:28.502Z,51.212288
2023-05-06T05:17:28.439Z,51.212311
2023-05-06T05:18:28.393Z,51.212284
2023-05-06T05:19:28.391Z,51.212353
2023-05-06T05:20:28.358Z,51.212296
2023-05-06T05:21:28.351Z,51.212318
2023-05-06T05:22:28.366Z,51.212219
2023-05-06T05:23:28.346Z,51.212151
2023-05-06T05:24:28.328Z,51.212311
2023-05-06T05:25:28.300Z,51.212307
2023-05-06T05:26:28.336Z,51.212303
2023-05-06T05:27:28.304Z,51.212162
2023-05-06T05:28:28.319Z,51.212215
2023-05-06T05:29:28.376Z,51.212135
2023-05-06T05:30:28.303Z,51.212067
2023-05-06T05:31:28.313Z,51.211994
2023-05-06T05:32:28.336Z,51.211952
2023-05-06T05:33:28.326Z,51.212124
2023-05-06T05:34:28.253Z,51.212070
2023-05-06T05:35:28.273Z,51.212070
2023-05-06T05:36:28.282Z,51.212139
2023-05-06T05:37:28.270Z,51.212273
2023-05-06T05:38:28.273Z,51.212086
2023-05-06T05:39:28.220Z,51.212090
2023-05-06T05:40:28.218Z,51.212029
2023-05-06T05:41:28.221Z,51.211945
2023-05-06T05:42:28.213Z,51.212082
2023-05-06T05:43:28.204Z,51.212101
2023-05-06T05:44:28.193Z,51.212189
2023-05-06T05:45:29.256Z,51.212120
2023-05-06T05:46:28.207Z,51.211990
2023-05-06T05:47:28.203Z,51.212025
2023-05-06T05:48:28.175Z,51.212147
2023-05-06T05:49:28.162Z,51.212265
2023-05-06T05:50:28.239Z,51.212116
2023-05-06T05:51:28.167Z,51.212082
2023-05-06T05:52:28.180Z,51.211998
2023-05-06T05:53:28.152Z,51.212078
2023-05-06T05:54:28.206Z,51.211926
2023-05-06T05:55:28.174Z,51.212055
2023-05-06T05:56:28.116Z,51.211918
2023-05-06T05:57:28.168Z,51.211926
2023-05-06T05:58:28.104Z,51.212017
2023-05-06T05:59:28.121Z,51.212040
2023-05-06T06:00:28.093Z,51.212166
2023-05-06T06:01:28.229Z,51.212143
2023-05-06T06:02:28.220Z,51.212326
2023-05-06T06:03:28.162Z,51.212250
2023-05-06T06:04:28.134Z,51.212143
2023-05-06T06:05:28.148Z,51.212105
2023-05-06T06:06:28.037Z,51.212231
2023-05-06T06:07:28.022Z,51.212288
2023-05-06T06:08:28.050Z,51.211922
2023-05-06T06:09:28.073Z,51.211872
2023-05-06T06:10:28.046Z,51.212154
2023-05-06T06:11:28.022Z,51.212433
2023-05-06T06:12:28.078Z,51.212265
2023-05-06T06:13:28.760Z,51.212242
2023-05-06T06:14:29.021Z,51.212315
2023-05-06T06:15:28.006Z,51.212337
2023-05-06T06:16:27.997Z,51.212269
2023-05-06T06:17:28.223Z,51.212315
2023-05-06T06:18:27.989Z,51.212219
2023-05-06T06:19:27.968Z,51.212261
2023-05-06T06:20:28.019Z,51.212250
2023-05-06T06:21:27.958Z,51.212223
2023-05-06T06:22:27.962Z,51.212238
2023-05-06T06:23:27.917Z,51.212357
2023-05-06T06:24:27.949Z,51.212234
2023-05-06T06:25:27.951Z,51.212166
2023-05-06T06:26:27.912Z,51.212082
2023-05-06T06:27:27.936Z,51.212051
2023-05-06T06:28:27.889Z,51.212349
2023-05-06T06:29:27.889Z,51.212166
2023-05-06T06:30:27.881Z,51.212215
2023-05-06T06:31:27.919Z,51.212307
2023-05-06T06:32:27.915Z,51.212227
2023-05-06T06:33:27.846Z,51.212193
2023-05-06T06:34:27.892Z,51.212181
2023-05-06T06:35:27.838Z,51.212215
2023-05-06T06:36:27.871Z,51.212086
2023-05-06T06:37:27.833Z,51.212059
2023-05-06T06:38:27.875Z,51.212086
2023-05-06T06:39:27.861Z,51.212173
2023-05-06T06:40:27.857Z,51.212109
2023-05-06T06:41:27.812Z,51.212242
2023-05-06T06:42:27.814Z,51.212208
2023-05-06T06:43:27.854Z,51.212257
2023-05-06T06:44:27.796Z,51.212246
2023-05-06T06:45:27.842Z,51.212173
2023-05-06T06:46:27.790Z,51.212200
2023-05-06T06:47:27.782Z,51.212242
2023-05-06T06:48:27.789Z,51.212200
2023-05-06T06:49:27.807Z,51.212162
2023-05-06T06:50:27.760Z,51.212109
2023-05-06T06:51:27.802Z,51.212208
2023-05-06T06:52:27.744Z,51.212269
2023-05-06T06:53:27.734Z,51.212177
2023-05-06T06:54:27.785Z,51.212101
2023-05-06T06:55:27.727Z,51.212200
2023-05-06T06:56:27.733Z,51.212196
2023-05-06T06:57:27.716Z,51.212109
2023-05-06T06:58:27.797Z,51.212086
2023-05-06T06:59:27.696Z,51.212128
2023-05-06T07:00:27.738Z,51.212193
2023-05-06T07:01:27.757Z,51.212151
2023-05-06T07:02:27.743Z,51.212112
2023-05-06T07:03:27.817Z,51.212139
2023-05-06T07:04:27.795Z,51.212078
2023-05-06T07:05:27.754Z,51.212128
2023-05-06T07:06:27.670Z,51.212147
2023-05-06T07:07:27.659Z,51.212025
2023-05-06T07:08:27.694Z,51.212086
2023-05-06T07:09:27.665Z,51.212166
2023-05-06T07:10:27.638Z,51.212128
2023-05-06T07:11:27.656Z,51.212032
2023-05-06T07:12:27.622Z,51.212154
2023-05-06T07:13:27.607Z,51.212105
2023-05-06T07:14:27.590Z,51.212112
2023-05-06T07:15:27.617Z,51.212250
2023-05-06T07:16:27.664Z,51.212185
2023-05-06T07:17:27.700Z,51.212135
2023-05-06T07:18:27.804Z,51.212162
2023-05-06T07:19:27.606Z,51.212029
2023-05-06T07:20:27.672Z,51.212029
2023-05-06T07:21:27.627Z,51.212040
2023-05-06T07:22:27.602Z,51.212070
2023-05-06T07:23:28.271Z,51.212059
2023-05-06T07:24:27.572Z,51.212109
2023-05-06T07:25:28.568Z,51.212044
2023-05-06T07:26:27.550Z,51.212032
2023-05-06T07:27:27.541Z,51.212029
2023-05-06T07:28:27.564Z,51.212132
2023-05-06T07:29:27.529Z,51.212139
2023-05-06T07:30:27.515Z,51.212048
2023-05-06T07:31:27.568Z,51.212101
2023-05-06T07:32:27.565Z,51.211922
2023-05-06T07:33:27.575Z,51.211990
2023-05-06T07:34:27.499Z,51.212101
2023-05-06T07:35:27.474Z,51.212173
2023-05-06T07:36:27.467Z,51.212231
2023-05-06T07:37:27.571Z,51.212250
2023-05-06T07:38:27.488Z,51.212215
2023-05-06T07:39:27.480Z,51.212200
2023-05-06T07:40:27.446Z,51.212200
2023-05-06T07:41:27.464Z,51.212219
2023-05-06T07:42:28.515Z,51.212234
2023-05-06T07:43:27.424Z,51.212238
2023-05-06T07:44:27.447Z,51.212189
2023-05-06T07:45:27.424Z,51.212170
2023-05-06T07:46:27.513Z,51.212261
2023-05-06T07:47:28.513Z,51.212162
2023-05-06T07:48:27.467Z,51.212128
2023-05-06T07:49:27.439Z,51.212109
2023-05-06T07:50:27.372Z,51.212162
2023-05-06T07:51:27.398Z,51.212227
2023-05-06T07:52:27.423Z,51.212082
2023-05-06T07:53:27.544Z,51.212128
2023-05-06T07:54:27.362Z,51.212215
2023-05-06T07:55:27.360Z,51.212223
2023-05-06T07:56:27.438Z,51.212257
2023-05-06T07:57:27.381Z,51.212105
2023-05-06T07:58:27.333Z,51.212090
2023-05-06T07:59:27.329Z,51.212185
2023-05-06T08:00:28.073Z,51.212055
2023-05-06T08:01:27.328Z,51.212078
2023-05-06T08:02:27.463Z,51.212158
2023-05-06T08:03:27.581Z,51.212132
2023-05-06T08:04:27.367Z,51.212193
2023-05-06T08:05:27.300Z,51.212162
2023-05-06T08:06:27.294Z,51.212132
2023-05-06T08:07:27.268Z,51.212105
2023-05-06T08:08:27.288Z,51.212101
2023-05-06T08:09:27.266Z,51.212078
2023-05-06T08:10:27.246Z,51.212143
2023-05-06T08:11:27.254Z,51.212200
2023-05-06T08:12:27.238Z,51.212063
2023-05-06T08:13:28.143Z,51.212112
2023-05-06T08:14:27.258Z,51.212143
2023-05-06T08:15:27.228Z,51.212212
2023-05-06T08:16:27.716Z,51.212223
2023-05-06T08:17:27.253Z,51.212219
2023-05-06T08:18:27.262Z,51.212070
2023-05-06T08:19:27.238Z,51.212040
2023-05-06T08:20:27.247Z,51.212055
2023-05-06T08:21:27.231Z,51.212177
2023-05-06T08:22:27.177Z,51.212212
2023-05-06T08:23:27.252Z,51.212173
2023-05-06T08:24:27.181Z,51.212215
2023-05-06T08:25:27.268Z,51.212151
2023-05-06T08:26:27.178Z,51.212082
2023-05-06T08:27:27.262Z,51.212128
2023-05-06T08:28:27.712Z,51.212162
2023-05-06T08:29:27.148Z,51.212360
2023-05-06T08:30:27.133Z,51.212261
2023-05-06T08:31:27.264Z,51.212345
2023-05-06T08:32:27.168Z,51.212234
2023-05-06T08:33:27.122Z,51.212196
2023-05-06T08:34:27.124Z,51.211845
2023-05-06T08:35:27.127Z,51.211971
2023-05-06T08:36:27.116Z,51.212154
2023-05-06T08:37:27.116Z,51.212238
2023-05-06T08:38:27.100Z,51.212254
2023-05-06T08:39:27.099Z,51.212288
2023-05-06T08:40:27.065Z,51.212112
2023-05-06T08:41:27.061Z,51.212086
2023-05-06T08:42:27.060Z,51.212128
2023-05-06T08:43:27.108Z,51.212196
2023-05-06T08:44:27.050Z,51.212173
2023-05-06T08:45:29.556Z,51.212284
2023-05-06T08:46:27.044Z,51.212292
2023-05-06T08:47:27.046Z,51.212440
2023-05-06T08:48:27.029Z,51.212341
2023-05-06T08:49:27.074Z,51.212128
2023-05-06T08:50:27.055Z,51.212173
2023-05-06T08:51:27.038Z,51.212025
2023-05-06T08:52:27.109Z,51.211979
2023-05-06T08:53:26.970Z,51.212097
2023-05-06T08:54:26.976Z,51.211937
2023-05-06T08:55:26.975Z,51.212101
2023-05-06T08:56:27.013Z,51.212093
2023-05-06T08:57:26.977Z,51.212173
2023-05-06T08:58:26.966Z,51.212196
2023-05-06T08:59:26.972Z,51.212132
2023-05-06T09:00:26.923Z,51.211998
2023-05-06T09:01:26.967Z,51.211811
2023-05-06T09:02:26.992Z,51.211834
2023-05-06T09:03:27.149Z,51.211845
2023-05-06T09:04:26.945Z,51.212132
2023-05-06T09:05:26.915Z,51.212166
2023-05-06T09:06:26.899Z,51.212227
2023-05-06T09:07:26.898Z,51.212200
2023-05-06T09:08:26.889Z,51.212036
2023-05-06T09:09:26.925Z,51.212040
2023-05-06T09:10:26.874Z,51.212067
2023-05-06T09:11:26.868Z,51.212109
2023-05-06T09:12:26.895Z,51.212223
2023-05-06T09:13:26.856Z,51.211975
2023-05-06T09:14:26.851Z,51.212044
2023-05-06T09:15:26.839Z,51.211700
2023-05-06T09:16:26.899Z,51.211773
2023-05-06T09:17:27.071Z,51.211975
2023-05-06T09:18:26.867Z,51.211761
2023-05-06T09:19:26.845Z,51.211952
2023-05-06T09:20:26.847Z,51.211926
2023-05-06T09:21:26.803Z,51.211945
2023-05-06T09:22:26.857Z,51.211994
2023-05-06T09:23:26.800Z,51.212093
2023-05-06T09:24:26.804Z,51.212067
2023-05-06T09:25:26.768Z,51.211964
2023-05-06T09:26:26.797Z,51.212036
2023-05-06T09:27:26.761Z,51.212223
2023-05-06T09:28:26.806Z,51.212215
2023-05-06T09:29:26.819Z,51.212215
2023-05-06T09:30:26.764Z,51.212139
2023-05-06T09:31:26.872Z,51.211849
2023-05-06T09:32:26.856Z,51.211849
2023-05-06T09:33:26.804Z,51.212029
2023-05-06T09:34:26.733Z,51.212238
2023-05-06T09:35:26.740Z,51.212303
2023-05-06T09:36:26.778Z,51.212086
2023-05-06T09:37:26.716Z,51.212036
2023-05-06T09:38:26.714Z,51.212036
2023-05-06T09:39:26.691Z,51.212067
2023-05-06T09:40:26.738Z,51.211926
2023-05-06T09:41:26.711Z,51.212032
2023-05-06T09:42:26.713Z,51.212151
2023-05-06T09:43:26.695Z,51.212250
2023-05-06T09:44:26.672Z,51.212105
2023-05-06T09:45:26.831Z,51.212097
2023-05-06T09:46:26.754Z,51.212044
2023-05-06T09:47:26.754Z,51.212234
2023-05-06T09:48:26.674Z,51.212135
2023-05-06T09:49:26.672Z,51.211918
2023-05-06T09:50:26.668Z,51.211670
2023-05-06T09:51:26.641Z,51.211750
2023-05-06T09:52:26.655Z,51.212032
2023-05-06T09:53:26.636Z,51.212189
2023-05-06T09:54:26.639Z,51.212120
2023-05-06T09:55:26.876Z,51.212124
2023-05-06T09:56:26.643Z,51.212086
2023-05-06T09:57:27.616Z,51.211971
2023-05-06T09:58:26.672Z,51.212215
2023-05-06T09:59:26.629Z,51.212097
2023-05-06T10:00:26.607Z,51.212002
2023-05-06T10:01:36.067Z,51.212116
2023-05-06T10:02:28.707Z,51.212151
2023-05-06T10:03:26.690Z,51.212093
2023-05-06T10:04:26.807Z,51.212025
2023-05-06T10:05:26.598Z,51.212093
2023-05-06T10:06:26.583Z,51.212158
2023-05-06T10:07:26.596Z,51.212219
2023-05-06T10:08:26.566Z,51.212185
2023-05-06T10:09:26.554Z,51.212139
2023-05-06T10:10:26.553Z,51.212074
2023-05-06T10:11:27.579Z,51.212185
2023-05-06T10:12:26.581Z,51.212162
2023-05-06T10:13:26.546Z,51.212212
2023-05-06T10:14:26.577Z,51.212090
2023-05-06T10:15:26.559Z,51.212109
2023-05-06T10:16:26.595Z,51.212109
2023-05-06T10:17:26.631Z,51.212040
2023-05-06T10:18:26.517Z,51.211948
2023-05-06T10:19:26.786Z,51.211933
2023-05-06T10:20:26.577Z,51.211979
2023-05-06T10:21:26.498Z,51.212101
2023-05-06T10:22:26.547Z,51.212246
2023-05-06T10:23:26.489Z,51.212246
2023-05-06T10:24:26.456Z,51.212139
2023-05-06T10:25:26.494Z,51.211926
2023-05-06T10:26:26.473Z,51.212082
2023-05-06T10:27:26.467Z,51.212280
2023-05-06T10:28:30.953Z,51.212254
2023-05-06T10:29:26.440Z,51.212265
2023-05-06T10:30:26.730Z,51.212234
2023-05-06T10:31:26.420Z,51.212177
2023-05-06T10:32:26.470Z,51.212166
2023-05-06T10:33:26.526Z,51.212128
2023-05-06T10:34:26.414Z,51.212093
2023-05-06T10:35:26.410Z,51.212082
2023-05-06T10:36:26.390Z,51.212101
2023-05-06T10:37:26.434Z,51.212097
2023-05-06T10:38:26.362Z,51.212059
2023-05-06T10:39:26.373Z,51.212078
2023-05-06T10:40:26.364Z,51.211983
2023-05-06T10:41:26.351Z,51.212040
2023-05-06T10:42:26.333Z,51.212101
2023-05-06T10:43:26.336Z,51.212147
2023-05-06T10:44:26.336Z,51.212082
2023-05-06T10:45:26.372Z,51.212074
2023-05-06T10:46:26.383Z,51.212139
2023-05-06T10:47:26.350Z,51.212097
2023-05-06T10:48:26.330Z,51.212025
2023-05-06T10:49:26.356Z,51.212162
2023-05-06T10:50:26.317Z,51.212193
2023-05-06T10:51:26.269Z,51.212093
2023-05-06T10:52:26.272Z,51.212124
2023-05-06T10:53:26.247Z,51.212162
2023-05-06T10:54:26.277Z,51.212189
2023-05-06T10:55:26.292Z,51.212166
2023-05-06T10:56:26.246Z,51.212132
2023-05-06T10:57:26.244Z,51.212105
2023-05-06T10:58:26.210Z,51.212067
2023-05-06T10:59:26.215Z,51.212074
2023-05-06T11:00:26.209Z,51.212112
2023-05-06T11:01:26.232Z,51.212208
2023-05-06T11:02:26.371Z,51.212315
2023-05-06T11:03:26.296Z,51.212208
2023-05-06T11:04:26.172Z,51.212143
2023-05-06T11:05:26.291Z,51.212090
2023-05-06T11:06:26.185Z,51.212086
2023-05-06T11:07:26.188Z,51.212109
2023-05-06T11:08:26.190Z,51.212135
2023-05-06T11:09:26.188Z,51.212097
2023-05-06T11:10:26.177Z,51.212048
2023-05-06T11:11:26.120Z,51.212063
2023-05-06T11:12:26.113Z,51.211937
2023-05-06T11:13:26.277Z,51.212067
2023-05-06T11:14:26.150Z,51.212177
2023-05-06T11:15:26.157Z,51.212173
2023-05-06T11:16:26.173Z,51.212154
2023-05-06T11:17:26.193Z,51.212193
2023-05-06T11:18:26.079Z,51.212223
2023-05-06T11:19:26.081Z,51.212112
2023-05-06T11:20:26.074Z,51.212025
2023-05-06T11:21:26.158Z,51.212097
2023-05-06T11:22:26.086Z,51.212063
2023-05-06T11:23:26.054Z,51.212074
2023-05-06T11:24:26.053Z,51.212006